createdAt,value
2024-05-09T00:00:39.154Z,16.98
2024-05-09T00:03:08.068Z,20.08
2024-05-09T00:05:35.871Z,18.38
2024-05-09T00:08:03.488Z,22.98
2024-05-09T00:10:36.259Z,17.87
2024-05-09T00:13:05.979Z,18.05
2024-05-09T00:15:33.930Z,19.38
2024-05-09T00:18:01.376Z,18.85
2024-05-09T00:20:36.481Z,21.38
2024-05-09T00:23:10.934Z,20.47
2024-05-09T00:25:38.783Z,16.90
2024-05-09T00:28:06.136Z,17.35
2024-05-09T00:30:35.492Z,17.15
2024-05-09T00:33:05.927Z,19.35
2024-05-09T00:35:33.830Z,20.20
2024-05-09T00:38:00.862Z,19.55
2024-05-09T00:40:38.740Z,19.95
2024-05-09T00:43:08.463Z,22.33
2024-05-09T00:45:35.723Z,21.58
2024-05-09T00:48:06.203Z,18.97
2024-05-09T00:50:36.895Z,18.48
2024-05-09T00:53:06.756Z,24.95
2024-05-09T00:55:37.639Z,16.95
2024-05-09T00:58:05.732Z,18.02
2024-05-09T01:00:38.823Z,19.77
2024-05-09T01:03:09.056Z,20.27
2024-05-09T01:05:39.023Z,19.67
2024-05-09T01:08:06.660Z,23.13
2024-05-09T01:10:35.249Z,23.85
2024-05-09T01:13:07.257Z,21.83
2024-05-09T01:15:35.156Z,24.45
2024-05-09T01:18:10.406Z,24.27
2024-05-09T01:20:42.290Z,22.98
2024-05-09T01:23:12.772Z,21.83
2024-05-09T01:25:40.496Z,19.40
2024-05-09T01:28:07.470Z,21.23
2024-05-09T01:30:36.621Z,22.13
2024-05-09T01:33:09.696Z,21.50
2024-05-09T01:35:39.053Z,18.90
2024-05-09T01:38:06.741Z,20.17
2024-05-09T01:40:38.571Z,21.88
2024-05-09T01:43:11.524Z,20.92
2024-05-09T01:45:39.620Z,19.48
2024-05-09T01:48:07.900Z,19.48
2024-05-09T01:50:39.601Z,18.20
2024-05-09T01:53:13.274Z,19.00
2024-05-09T01:55:40.700Z,19.85
2024-05-09T01:58:08.637Z,24.70
2024-05-09T02:00:40.360Z,23.92
2024-05-09T02:03:12.319Z,21.47
2024-05-09T02:05:42.518Z,21.73
2024-05-09T02:08:16.579Z,22.75
2024-05-09T02:10:44.470Z,22.73
2024-05-09T02:13:11.482Z,21.55
2024-05-09T02:15:38.511Z,25.13
2024-05-09T02:18:05.770Z,21.27
2024-05-09T02:20:36.390Z,21.67
2024-05-09T02:23:06.212Z,22.73
2024-05-09T02:25:33.716Z,22.38
2024-05-09T02:28:00.695Z,20.93
2024-05-09T02:30:37.863Z,22.05
2024-05-09T02:33:08.984Z,19.50
2024-05-09T02:35:36.641Z,22.48
2024-05-09T02:38:03.555Z,25.13
2024-05-09T02:40:36.694Z,22.83
2024-05-09T02:43:06.420Z,24.30
2024-05-09T02:45:33.518Z,22.83
2024-05-09T02:48:01.565Z,23.05
2024-05-09T02:50:36.855Z,21.85
2024-05-09T02:53:07.514Z,22.60
2024-05-09T02:55:34.563Z,20.38
2024-05-09T02:58:01.346Z,21.35
2024-05-09T03:00:36.751Z,26.15
2024-05-09T03:03:12.741Z,23.52
2024-05-09T03:05:41.909Z,21.90
2024-05-09T03:08:09.084Z,23.63
2024-05-09T03:10:38.400Z,24.98
2024-05-09T03:13:12.772Z,21.40
2024-05-09T03:15:40.799Z,23.13
2024-05-09T03:18:08.824Z,22.20
2024-05-09T03:20:36.913Z,20.52
2024-05-09T03:23:05.408Z,20.52
2024-05-09T03:25:32.856Z,22.08
2024-05-09T03:27:59.807Z,24.25
2024-05-09T03:30:38.434Z,19.63
2024-05-09T03:33:13.722Z,23.42
2024-05-09T03:35:41.935Z,22.52
2024-05-09T03:38:08.983Z,23.65
2024-05-09T03:40:35.885Z,21.88
2024-05-09T03:43:02.580Z,22.10
2024-05-09T03:45:29.255Z,24.98
2024-05-09T03:47:56.189Z,25.23
2024-05-09T03:50:30.031Z,24.75
2024-05-09T03:53:01.733Z,22.10
2024-05-09T03:55:28.625Z,23.10
2024-05-09T03:57:55.339Z,22.30
2024-05-09T04:00:31.046Z,19.45
2024-05-09T04:03:06.109Z,23.02
2024-05-09T04:05:34.488Z,23.77
2024-05-09T04:08:01.611Z,21.30
2024-05-09T04:10:33.242Z,19.35
2024-05-09T04:13:01.859Z,21.02
2024-05-09T04:15:28.696Z,21.13
2024-05-09T04:17:55.814Z,23.20
2024-05-09T04:20:32.410Z,22.80
2024-05-09T04:23:05.416Z,27.00
2024-05-09T04:25:32.361Z,29.77
2024-05-09T04:27:59.103Z,23.83
2024-05-09T04:30:34.681Z,18.05
2024-05-09T04:33:07.675Z,18.57
2024-05-09T04:35:36.127Z,16.20
2024-05-09T04:38:05.096Z,19.50
2024-05-09T04:40:35.157Z,16.98
2024-05-09T04:43:13.481Z,15.50
2024-05-09T04:45:40.636Z,13.43
2024-05-09T04:48:08.015Z,15.63
2024-05-09T04:50:38.196Z,18.38
2024-05-09T04:53:09.033Z,16.15
2024-05-09T04:55:37.276Z,14.75
2024-05-09T04:58:04.983Z,15.73
2024-05-09T05:00:37.138Z,15.07
2024-05-09T05:03:14.002Z,15.18
2024-05-09T05:05:43.901Z,14.52
2024-05-09T05:08:12.598Z,15.70
2024-05-09T05:10:39.814Z,12.53
2024-05-09T05:13:16.599Z,13.55
2024-05-09T05:15:43.978Z,16.10
2024-05-09T05:18:10.832Z,13.90
2024-05-09T05:20:37.672Z,15.50
2024-05-09T05:23:10.139Z,14.40
2024-05-09T05:25:37.035Z,14.02
2024-05-09T05:28:03.920Z,13.88
2024-05-09T05:30:34.557Z,14.95
2024-05-09T05:33:02.108Z,17.00
2024-05-09T05:35:29.032Z,15.47
2024-05-09T05:37:55.875Z,16.40
2024-05-09T05:40:32.039Z,14.77
2024-05-09T05:43:15.671Z,15.48
2024-05-09T05:45:43.320Z,16.17
2024-05-09T05:48:10.175Z,13.73
2024-05-09T05:50:38.382Z,13.98
2024-05-09T05:53:07.643Z,14.63
2024-05-09T05:55:35.530Z,16.13
2024-05-09T05:58:02.880Z,16.80
2024-05-09T06:00:37.311Z,16.50
2024-05-09T06:03:06.499Z,14.40
2024-05-09T06:05:33.565Z,13.30
2024-05-09T06:08:00.687Z,15.18
2024-05-09T06:10:37.038Z,14.32
2024-05-09T06:13:06.522Z,15.30
2024-05-09T06:15:33.274Z,13.85
2024-05-09T06:18:00.247Z,12.10
2024-05-09T06:20:34.913Z,14.07
2024-05-09T06:23:04.891Z,12.63
2024-05-09T06:25:32.038Z,11.73
2024-05-09T06:28:00.404Z,13.68
2024-05-09T06:30:36.630Z,12.50
2024-05-09T06:33:07.682Z,11.65
2024-05-09T06:35:35.190Z,14.30
2024-05-09T06:38:02.258Z,12.00
2024-05-09T06:40:37.021Z,12.32
2024-05-09T06:43:14.526Z,10.55
2024-05-09T06:45:41.843Z,13.70
2024-05-09T06:48:10.055Z,11.57
2024-05-09T06:50:38.626Z,11.37
2024-05-09T06:53:09.673Z,12.85
2024-05-09T06:55:37.341Z,12.70
2024-05-09T06:58:06.034Z,11.30
2024-05-09T07:00:38.898Z,12.45
2024-05-09T07:03:13.168Z,14.60
2024-05-09T07:05:42.374Z,15.95
2024-05-09T07:08:09.435Z,13.55
2024-05-09T07:10:37.026Z,13.45
2024-05-09T07:13:14.276Z,15.77
2024-05-09T07:15:42.227Z,14.97
2024-05-09T07:18:13.829Z,14.52
2024-05-09T07:20:41.378Z,14.88
2024-05-09T07:23:14.078Z,14.40
2024-05-09T07:25:41.810Z,15.25
2024-05-09T07:28:14.082Z,15.20
2024-05-09T07:30:41.262Z,17.40
2024-05-09T07:33:08.260Z,17.23
2024-05-09T07:35:35.451Z,15.10
2024-05-09T07:38:02.322Z,16.92
2024-05-09T07:40:35.517Z,17.00
2024-05-09T07:43:07.644Z,18.13
2024-05-09T07:52:32.523Z,14.35
2024-05-09T07:55:54.000Z,18.20
2024-05-09T07:58:20.950Z,14.20
2024-05-09T08:00:47.850Z,14.13
2024-05-09T08:03:14.668Z,14.85
2024-05-09T08:05:41.522Z,14.07
2024-05-09T08:08:08.811Z,15.85
2024-05-09T08:10:35.575Z,14.85
2024-05-09T08:13:02.565Z,15.40
2024-05-09T08:15:29.596Z,14.68
2024-05-09T08:17:56.662Z,13.47
2024-05-09T08:20:30.944Z,15.85
2024-05-09T08:23:01.545Z,14.88
2024-05-09T08:25:28.939Z,16.50
2024-05-09T08:27:55.781Z,15.45
2024-05-09T08:30:30.011Z,15.70
2024-05-09T08:33:04.044Z,15.23
2024-05-09T08:35:30.862Z,16.05
2024-05-09T08:37:58.074Z,12.93
2024-05-09T08:40:32.844Z,13.38
2024-05-09T08:43:03.542Z,20.10
2024-05-09T08:45:33.097Z,17.20
2024-05-09T08:48:01.447Z,14.57
2024-05-09T08:50:35.949Z,17.60
2024-05-09T08:53:05.996Z,11.27
2024-05-09T08:55:32.897Z,11.03
2024-05-09T08:58:01.426Z,10.68
2024-05-09T09:00:36.103Z,10.20
2024-05-09T09:03:09.284Z,9.50
2024-05-09T09:05:38.903Z,9.65
2024-05-09T09:08:08.514Z,11.27
2024-05-09T09:10:37.945Z,14.27
2024-05-09T09:13:07.231Z,10.48
2024-05-09T09:15:34.108Z,12.40
2024-05-09T09:18:01.499Z,9.43
2024-05-09T09:20:35.827Z,12.33
2024-05-09T09:23:04.416Z,11.32
2024-05-09T09:25:31.449Z,9.80
2024-05-09T09:27:58.642Z,9.20
2024-05-09T09:30:35.116Z,9.73
2024-05-09T09:33:05.773Z,7.90
2024-05-09T09:35:32.892Z,8.23
2024-05-09T09:38:03.190Z,9.35
2024-05-09T09:40:37.690Z,10.20
2024-05-09T09:43:14.582Z,9.82
2024-05-09T09:45:43.254Z,9.13
2024-05-09T09:48:14.640Z,7.25
2024-05-09T09:50:42.564Z,8.10
2024-05-09T09:53:10.251Z,8.93
2024-05-09T09:55:37.973Z,5.53
2024-05-09T09:58:07.705Z,5.50
2024-05-09T10:00:36.409Z,8.93
2024-05-09T10:03:03.421Z,6.88
2024-05-09T10:05:30.751Z,6.80
2024-05-09T10:07:59.203Z,8.13
2024-05-09T10:10:32.360Z,6.80
2024-05-09T10:13:02.936Z,8.60
2024-05-09T10:15:29.934Z,12.00
2024-05-09T10:18:08.481Z,6.72
2024-05-09T10:20:49.597Z,7.78
2024-05-09T10:23:29.862Z,7.07
2024-05-09T10:26:01.247Z,5.07
2024-05-09T10:28:29.139Z,5.82
2024-05-09T10:31:12.121Z,7.57
2024-05-09T10:33:51.607Z,6.78
2024-05-09T10:36:20.296Z,6.97
2024-05-09T10:38:48.308Z,7.25
2024-05-09T10:41:17.110Z,7.75
2024-05-09T10:43:43.990Z,8.98
2024-05-09T10:46:11.746Z,7.93
2024-05-09T10:48:39.753Z,8.87
2024-05-09T10:51:06.768Z,7.47
2024-05-09T10:53:47.054Z,10.43
2024-05-09T10:56:14.429Z,8.27
2024-05-09T10:58:41.648Z,9.18
2024-05-09T11:01:09.835Z,7.63
2024-05-09T11:03:37.920Z,6.97
2024-05-09T11:06:05.749Z,5.70
2024-05-09T11:08:34.196Z,7.03
2024-05-09T11:11:02.968Z,7.05
2024-05-09T11:13:31.382Z,6.10
2024-05-09T11:15:59.155Z,6.63
2024-05-09T11:18:31.693Z,6.82
2024-05-09T11:21:01.495Z,10.43
2024-05-09T11:23:30.704Z,8.73
2024-05-09T11:25:58.995Z,6.37
2024-05-09T11:28:28.883Z,6.82
2024-05-09T11:31:09.974Z,6.72
2024-05-09T11:33:42.217Z,6.82
2024-05-09T11:36:10.383Z,8.82
2024-05-09T11:38:37.197Z,10.00
2024-05-09T11:41:05.170Z,6.75
2024-05-09T11:43:32.295Z,6.30
2024-05-09T11:45:59.720Z,5.20
2024-05-09T11:48:27.020Z,7.25
2024-05-09T11:50:55.340Z,7.23
2024-05-09T11:53:22.228Z,7.82
2024-05-09T11:55:49.015Z,7.60
2024-05-09T11:58:17.828Z,6.13
2024-05-09T12:00:45.464Z,8.57
2024-05-09T12:03:12.517Z,8.07
2024-05-09T12:05:39.427Z,7.18
2024-05-09T12:08:06.875Z,8.02
2024-05-09T12:10:35.789Z,9.88
2024-05-09T12:13:05.493Z,6.80
2024-05-09T12:15:35.973Z,6.80
2024-05-09T12:18:04.214Z,7.20
2024-05-09T12:20:36.956Z,5.90
2024-05-09T12:23:06.937Z,6.15
2024-05-09T12:25:34.804Z,5.65
2024-05-09T12:28:01.796Z,8.07
2024-05-09T12:30:36.129Z,6.25
2024-05-09T12:33:13.142Z,7.13
2024-05-09T12:35:43.500Z,6.32
2024-05-09T12:38:13.722Z,7.18
2024-05-09T12:40:40.424Z,6.57
2024-05-09T12:43:08.705Z,6.93
2024-05-09T12:45:36.722Z,6.72
2024-05-09T12:48:06.863Z,7.05
2024-05-09T12:50:34.693Z,5.95
2024-05-09T12:53:02.965Z,7.43
2024-05-09T12:55:37.157Z,6.72
2024-05-09T12:58:11.364Z,6.85
2024-05-09T13:00:38.378Z,8.02
2024-05-09T13:03:05.446Z,6.35
2024-05-09T13:05:32.411Z,6.40
2024-05-09T13:08:00.533Z,7.55
2024-05-09T13:10:32.079Z,7.60
2024-05-09T13:13:01.309Z,6.55
2024-05-09T13:15:29.822Z,7.25
2024-05-09T13:18:00.296Z,5.37
2024-05-09T13:20:33.321Z,6.07
2024-05-09T13:23:03.468Z,12.07
2024-05-09T13:25:30.230Z,5.95
2024-05-09T13:27:57.745Z,7.05
2024-05-09T13:30:30.055Z,6.53
2024-05-09T13:33:06.112Z,5.78
2024-05-09T13:35:34.909Z,5.55
2024-05-09T13:38:02.588Z,8.40
2024-05-09T13:40:33.811Z,7.70
2024-05-09T13:43:06.001Z,6.80
2024-05-09T13:45:33.715Z,7.03
2024-05-09T13:48:02.369Z,7.20
2024-05-09T13:50:35.836Z,7.40
2024-05-09T13:53:06.565Z,6.13
2024-05-09T13:55:35.157Z,5.67
2024-05-09T13:58:02.468Z,6.82
2024-05-09T14:00:41.959Z,7.03
2024-05-09T14:03:14.655Z,5.32
2024-05-09T14:05:41.937Z,7.22
2024-05-09T14:08:09.063Z,7.10
2024-05-09T14:10:36.042Z,6.85
2024-05-09T14:13:02.921Z,8.48
2024-05-09T14:15:29.688Z,5.03
2024-05-09T14:17:56.523Z,5.72
2024-05-09T14:20:30.439Z,5.97
2024-05-09T14:22:59.676Z,7.35
2024-05-09T14:25:31.851Z,5.68
2024-05-09T14:27:58.821Z,6.38
2024-05-09T14:30:34.403Z,6.43
2024-05-09T14:33:05.118Z,5.30
2024-05-09T14:35:32.243Z,5.65
2024-05-09T14:37:59.113Z,7.63
2024-05-09T14:40:36.455Z,5.75
2024-05-09T14:43:08.612Z,7.40
2024-05-09T14:45:35.738Z,6.10
2024-05-09T14:48:03.588Z,5.50
2024-05-09T14:50:36.092Z,6.80
2024-05-09T14:53:06.955Z,7.22
2024-05-09T14:55:36.922Z,8.50
2024-05-09T14:58:08.880Z,5.20
2024-05-09T15:00:41.322Z,7.40
2024-05-09T15:03:11.395Z,6.35
2024-05-09T15:05:38.459Z,7.47
2024-05-09T15:08:07.174Z,6.07
2024-05-09T15:10:36.407Z,5.40
2024-05-09T15:13:04.458Z,4.82
2024-05-09T15:15:31.617Z,6.30
2024-05-09T15:17:58.803Z,5.22
2024-05-09T15:20:33.096Z,5.53
2024-05-09T15:23:03.352Z,6.43
2024-05-09T15:25:30.603Z,7.57
2024-05-09T15:27:57.537Z,7.38
2024-05-09T15:30:30.568Z,6.18
2024-05-09T15:33:00.749Z,7.70
2024-05-09T15:35:27.872Z,4.90
2024-05-09T15:37:54.941Z,7.50
2024-05-09T15:40:31.017Z,5.43
2024-05-09T15:43:05.363Z,5.38
2024-05-09T15:45:32.524Z,6.30
2024-05-09T15:47:59.775Z,8.57
2024-05-09T15:50:36.275Z,7.70
2024-05-09T15:53:07.726Z,6.18
2024-05-09T15:55:35.322Z,7.57
2024-05-09T15:58:03.352Z,10.45
2024-05-09T16:00:38.361Z,7.20
2024-05-09T16:03:09.520Z,5.45
2024-05-09T16:05:36.923Z,6.15
2024-05-09T16:08:04.471Z,7.50
2024-05-09T16:10:33.297Z,4.60
2024-05-09T16:13:02.534Z,7.47
2024-05-09T16:15:29.897Z,7.07
2024-05-09T16:17:56.983Z,9.05
2024-05-09T16:22:54.397Z,5.97
2024-05-09T16:25:21.247Z,5.77
2024-05-09T16:27:48.143Z,6.60
2024-05-09T16:30:21.236Z,5.60
2024-05-09T16:32:56.003Z,6.25
2024-05-09T16:35:22.819Z,6.97
2024-05-09T16:37:49.636Z,6.50
2024-05-09T16:40:25.300Z,6.43
2024-05-09T16:43:03.447Z,8.90
2024-05-09T16:45:30.473Z,6.45
2024-05-09T16:47:57.486Z,8.43
2024-05-09T16:50:29.451Z,6.97
2024-05-09T16:52:59.822Z,6.35
2024-05-09T16:55:26.804Z,6.13
2024-05-09T16:57:53.640Z,7.25
2024-05-09T17:00:31.070Z,6.18
2024-05-09T17:03:06.668Z,6.90
2024-05-09T17:05:34.054Z,5.28
2024-05-09T17:08:01.326Z,6.90
2024-05-09T17:10:32.852Z,7.35
2024-05-09T17:13:06.401Z,7.47
2024-05-09T17:15:34.834Z,7.27
2024-05-09T17:18:02.265Z,5.55
2024-05-09T17:20:33.768Z,9.38
2024-05-09T17:23:04.584Z,6.57
2024-05-09T17:25:31.947Z,7.47
2024-05-09T17:28:05.322Z,7.23
2024-05-09T17:30:36.434Z,7.30
2024-05-09T17:33:06.725Z,5.88
2024-05-09T17:35:33.812Z,8.38
2024-05-09T17:38:01.611Z,6.10
2024-05-09T17:40:33.571Z,5.67
2024-05-09T17:43:03.977Z,7.93
2024-05-09T17:45:31.603Z,7.50
2024-05-09T17:47:59.087Z,9.10
2024-05-09T17:50:31.802Z,7.53
2024-05-09T17:53:02.790Z,6.50
2024-05-09T17:55:29.846Z,8.05
2024-05-09T17:57:56.936Z,8.60
2024-05-09T18:00:36.042Z,9.80
2024-05-09T18:03:06.942Z,7.60
2024-05-09T18:05:36.498Z,8.83
2024-05-09T18:08:04.069Z,10.23
2024-05-09T18:10:36.642Z,7.75
2024-05-09T18:13:07.124Z,8.10
2024-05-09T18:15:34.507Z,8.60
2024-05-09T18:18:02.707Z,8.63
2024-05-09T18:20:38.162Z,9.85
2024-05-09T18:23:11.161Z,9.25
2024-05-09T18:25:37.909Z,8.30
2024-05-09T18:28:05.632Z,8.60
2024-05-09T18:30:35.465Z,8.53
2024-05-09T18:33:05.748Z,7.72
2024-05-09T18:35:33.760Z,8.27
2024-05-09T18:38:00.660Z,10.30
2024-05-09T18:40:33.126Z,11.00
2024-05-09T18:43:04.243Z,12.10
2024-05-09T18:45:31.296Z,10.05
2024-05-09T18:47:58.323Z,8.35
2024-05-09T18:50:34.010Z,10.73
2024-05-09T18:53:07.362Z,8.55
2024-05-09T18:55:34.163Z,8.17
2024-05-09T18:58:01.162Z,9.20
2024-05-09T19:00:34.526Z,10.68
2024-05-09T19:03:06.243Z,10.00
2024-05-09T19:05:35.981Z,10.10
2024-05-09T19:08:03.340Z,9.03
2024-05-09T19:10:34.335Z,8.48
2024-05-09T19:13:06.741Z,8.70
2024-05-09T19:15:37.764Z,9.10
2024-05-09T19:18:05.105Z,8.68
2024-05-09T19:20:34.708Z,7.87
2024-05-09T19:23:03.114Z,8.25
2024-05-09T19:25:30.011Z,10.15
2024-05-09T19:27:56.794Z,9.25
2024-05-09T19:30:30.513Z,10.50
2024-05-09T19:33:05.742Z,7.50
2024-05-09T19:35:32.973Z,9.43
2024-05-09T19:37:59.881Z,7.40
2024-05-09T19:40:31.442Z,8.23
2024-05-09T19:43:01.689Z,11.52
2024-05-09T19:45:29.113Z,10.10
2024-05-09T19:47:56.352Z,9.85
2024-05-09T19:50:31.921Z,9.05
2024-05-09T19:53:06.646Z,8.45
2024-05-09T19:55:33.683Z,8.55
2024-05-09T19:58:04.888Z,9.20
2024-05-09T20:00:38.809Z,7.88
2024-05-09T20:03:08.307Z,8.35
2024-05-09T20:05:35.656Z,10.10
2024-05-09T20:08:02.795Z,9.63
2024-05-09T20:10:32.283Z,8.47
2024-05-09T20:13:01.304Z,8.05
2024-05-09T20:15:28.126Z,10.02
2024-05-09T20:17:55.270Z,8.75
2024-05-09T20:20:32.645Z,8.13
2024-05-09T20:23:05.140Z,9.27
2024-05-09T20:25:31.811Z,8.95
2024-05-09T20:27:58.575Z,9.10
2024-05-09T20:30:31.512Z,10.93
2024-05-09T20:33:01.767Z,11.15
2024-05-09T20:35:31.736Z,11.57
2024-05-09T20:37:58.829Z,9.13
2024-05-09T20:40:31.678Z,9.30
2024-05-09T20:43:02.259Z,8.68
2024-05-09T20:45:28.996Z,9.40
2024-05-09T20:47:55.890Z,8.17
2024-05-09T20:50:29.334Z,8.45
2024-05-09T20:53:05.224Z,8.65
2024-05-09T20:55:31.934Z,10.32
2024-05-09T20:57:58.849Z,8.63
2024-05-09T21:00:34.423Z,10.53
2024-05-09T21:03:07.197Z,8.60
2024-05-09T21:05:35.065Z,9.95
2024-05-09T21:08:02.337Z,9.23
2024-05-09T21:10:32.840Z,8.55
2024-05-09T21:13:02.409Z,9.70
2024-05-09T21:15:29.842Z,9.80
2024-05-09T21:17:56.575Z,9.55
2024-05-09T21:20:28.901Z,9.52
2024-05-09T21:22:58.487Z,8.57
2024-05-09T21:25:25.536Z,10.57
2024-05-09T21:27:52.584Z,10.18
2024-05-09T21:30:31.207Z,10.63
2024-05-09T21:33:05.852Z,8.90
2024-05-09T21:35:32.827Z,8.95
2024-05-09T21:37:59.483Z,10.73
2024-05-09T21:40:33.431Z,10.57
2024-05-09T21:43:02.416Z,9.32
2024-05-09T21:45:29.422Z,9.93
2024-05-09T21:47:56.262Z,7.95
2024-05-09T21:50:28.690Z,8.67
2024-05-09T21:53:03.243Z,11.73
2024-05-09T21:55:30.158Z,9.30
2024-05-09T21:57:57.176Z,9.48
2024-05-09T22:00:32.099Z,8.90
2024-05-09T22:03:03.509Z,9.83
2024-05-09T22:05:30.554Z,9.15
2024-05-09T22:07:57.454Z,9.90
2024-05-09T22:10:30.804Z,9.52
2024-05-09T22:13:01.491Z,10.02
2024-05-09T22:15:28.411Z,8.83
2024-05-09T22:17:56.632Z,10.02
2024-05-09T22:20:32.915Z,10.55
2024-05-09T22:23:04.235Z,10.82
2024-05-09T22:25:32.163Z,9.27
2024-05-09T22:28:00.065Z,11.40
2024-05-09T22:30:34.994Z,9.38
2024-05-09T22:33:06.533Z,9.23
2024-05-09T22:35:33.494Z,8.48
2024-05-09T22:38:00.214Z,10.27
2024-05-09T22:40:38.383Z,8.43
2024-05-09T22:43:13.611Z,7.45
2024-05-09T22:45:40.741Z,8.95
2024-05-09T22:48:08.389Z,9.90
2024-05-09T22:50:35.353Z,9.65
2024-05-09T22:53:02.142Z,8.50
2024-05-09T22:55:29.079Z,10.32
2024-05-09T22:57:56.059Z,10.35
2024-05-09T23:00:30.981Z,9.95
2024-05-09T23:03:00.509Z,10.48
2024-05-09T23:05:27.649Z,8.63
2024-05-09T23:07:54.510Z,11.57
2024-05-09T23:10:28.188Z,8.77
2024-05-09T23:13:01.680Z,8.00
2024-05-09T23:15:28.845Z,9.63
2024-05-09T23:17:55.892Z,9.70
2024-05-09T23:20:33.208Z,8.88
2024-05-09T23:23:05.511Z,9.82
2024-05-09T23:25:32.565Z,9.02
2024-05-09T23:27:59.462Z,9.07
2024-05-09T23:30:36.089Z,10.20
2024-05-09T23:33:06.415Z,8.70
2024-05-09T23:35:33.272Z,9.50
2024-05-09T23:37:59.900Z,10.57
2024-05-09T23:40:35.062Z,10.93
2024-05-09T23:43:05.886Z,8.53
2024-05-09T23:45:32.748Z,8.90
2024-05-09T23:47:59.860Z,10.13
2024-05-09T23:50:33.915Z,9.73
2024-05-09T23:53:04.159Z,9.10
2024-05-09T23:55:31.792Z,9.27
2024-05-09T23:57:58.883Z,8.82
